Tecate, CA

12:06 PM PST en Diciembre 20, 2014 (GMT -0800)
RAWS POTRERO CA US | Change Station
CLOSE
Current Station
Estación meteorológica personal
Location: Potrero, CA
Altura: 2345 ft
Estaciones meteorológicas cercanas

Alt 2345 ft 32.61 °N, 116.61 °W | Updated 39 minutes ago

Parcialmente nublado
Parcialmente nublado
57 ° F
Sensación térmica 57 ° F
N
3
Viento Variable Viento desde Oeste
Gusts 6.0 mph

Hoy
Alta -- | Baja -- ° F
--% Posibilidad de precipitaciones
Ayer
Alta -- | Baja -- ° F
Precip. -- pul
6:44 AM 4:44 PM
Creciente menguante, 2% visible
Presión 30.16 pul
Visibilidad 10.0 Millas
Nubes Baja 2500 ft
Punto de rocío 45 ° F
Humedad 64%
Precipitaciones 0.00 pul
Espesor de la nieve No disponible.
UV 3 de una escala de 12
Polen 5.70 de una escala de 12
Calidad del aire No disponible.
Flu Activity No disponible.
METAR KSDM 201953Z VRB05KT 10SM FEW025 18/10 A3016

More Conditions Fewer Conditions

Presión 30.16 pul
Visibilidad 10.0 Millas
Nubes Baja 2500 ft
Punto de rocío 45 ° F
Humedad 64%
Precipitaciones 0.00 pul
Espesor de la nieve No disponible.
UV 3 de una escala de 12
Polen 5.70 de una escala de 12
Calidad del aire No disponible.
Flu Activity No disponible.
METAR KSDM 201953Z VRB05KT 10SM FEW025 18/10 A3016

More Conditions Fewer Conditions

10-Day Weather Forecast

Almanac

Astronomía

Dec. 20, 2014 Salida Puesta
Hora real
Crepúsculo civil
Crepúsculo náutico
Crepúsculo astronómico
Luna
Horas de luz
Horas de luz
Tomorrow will be .
, % of the Moon is Illuminated

Extremos de hoy

Máximos del estado Bajos del estado

Community

WunderPhotos

Upload Photos

1,779,267 ¡fotos cargadas!

WunderBlogs® & News

Nearby

Calidad del aire

  Calidad del aire Índice AQ Contaminante
Not available.

Grosos de nieve

Estación Profundido Altura

Actividad de terremotos

Ciudad Distance Mag. Tiempo y dato
Magnitud mínima muestra es 2,5.

Temperaturas de aguas costeras

Lugar Temperatura

Estaciones meteorológicas cercanas